Time;durP1;ratioP1;P1;durP2;ratioP2;P2;SDS_P1;SDS_P2;PMS_P1;PMS_P2;Temp;Humidity;BMP_temperature;BMP_pressure;BME280_temperature;BME280_humidity;BME280_pressure;Samples;Min_cycle;Max_cycle;Signal;HPM_P1;HPM_P2
2022/07/20 00:00:29;;;;;;;7.88;3.83;;;23.50;82.70;;;;;;5013155;28;20179;-79
2022/07/20 00:02:55;;;;;;;12.82;3.92;;;23.60;80.60;;;;;;5012830;28;20690;-78
2022/07/20 00:05:20;;;;;;;8.20;4.10;;;23.60;81.10;;;;;;5013034;28;20198;-78
2022/07/20 00:07:46;;;;;;;8.38;3.63;;;23.60;81.20;;;;;;5013013;28;20175;-77
2022/07/20 00:12:56;;;;;;;9.93;4.38;;;23.60;82.30;;;;;;5014210;28;20253;-78
2022/07/20 00:15:21;;;;;;;12.18;4.05;;;23.30;82.60;;;;;;5012454;28;20329;-76
2022/07/20 00:17:47;;;;;;;11.40;3.90;;;22.90;84.90;;;;;;5012421;28;20203;-77
2022/07/20 00:20:13;;;;;;;11.80;3.58;;;22.80;87.50;;;;;;5013440;28;20167;-77
2022/07/20 00:22:38;;;;;;;15.10;4.28;;;23.00;87.30;;;;;;5013050;28;20174;-77
2022/07/20 00:25:04;;;;;;;9.68;4.10;;;22.80;87.60;;;;;;5013341;28;20198;-77
2022/07/20 00:27:30;;;;;;;8.75;4.00;;;22.80;86.90;;;;;;5012964;28;20175;-77
2022/07/20 00:29:56;;;;;;;12.68;4.38;;;22.90;83.90;;;;;;5013354;28;20533;-78
2022/07/20 00:32:21;;;;;;;11.20;3.75;;;23.00;82.60;;;;;;5012599;28;20178;-77
2022/07/20 00:34:47;;;;;;;9.55;4.22;;;23.00;82.30;;;;;;5012181;28;20662;-77
2022/07/20 00:37:13;;;;;;;5.45;3.97;;;22.90;82.70;;;;;;5013110;28;20252;-78
2022/07/20 00:39:38;;;;;;;8.13;3.78;;;22.90;83.70;;;;;;5012313;28;20639;-78
2022/07/20 00:42:04;;;;;;;7.65;4.18;;;23.00;83.80;;;;;;5012629;28;20178;-77
2022/07/20 00:44:30;;;;;;;9.88;4.35;;;23.10;82.70;;;;;;5012808;28;20187;-77
2022/07/20 00:46:55;;;;;;;8.82;4.03;;;22.90;81.70;;;;;;5012359;28;20179;-77
2022/07/20 00:49:21;;;;;;;7.88;3.72;;;22.60;83.70;;;;;;5013078;28;20174;-77
2022/07/20 00:51:48;;;;;;;5.50;4.07;;;22.50;85.00;;;;;;5012272;28;20174;-77
2022/07/20 00:54:14;;;;;;;12.02;4.15;;;22.70;84.80;;;;;;5012739;28;20190;-77
2022/07/20 00:56:40;;;;;;;12.50;3.95;;;22.70;83.80;;;;;;5012880;28;20175;-77
2022/07/20 00:59:09;;;;;;;10.35;4.45;;;22.60;83.90;;;;;;5040710;22;20308;-84
2022/07/20 01:01:35;;;;;;;9.18;4.20;;;22.70;82.50;;;;;;5019409;28;20675;-84
2022/07/20 01:04:01;;;;;;;11.80;4.32;;;22.50;81.70;;;;;;5018585;28;20181;-84
2022/07/20 01:06:27;;;;;;;8.00;3.70;;;22.60;82.20;;;;;;5017195;28;20175;-84
2022/07/20 01:08:53;;;;;;;14.75;4.05;;;22.60;81.70;;;;;;5019697;28;20171;-84
2022/07/20 01:11:19;;;;;;;14.85;4.40;;;22.70;82.00;;;;;;5037727;23;20221;-81
2022/07/20 01:13:45;;;;;;;7.45;4.32;;;22.70;82.50;;;;;;5041338;28;20201;-83
2022/07/20 01:16:11;;;;;;;9.05;4.40;;;22.50;84.30;;;;;;5040447;28;20201;-83
2022/07/20 01:18:36;;;;;;;7.72;3.75;;;22.60;83.90;;;;;;5039574;28;20201;-83
2022/07/20 01:21:07;;;;;;;6.28;3.78;;;22.50;84.50;;;;;;5039464;28;20261;-83
2022/07/20 01:23:33;;;;;;;6.07;3.75;;;22.50;84.50;;;;;;5033802;28;20212;-83
2022/07/20 01:25:59;;;;;;;9.40;3.85;;;22.30;86.40;;;;;;5033302;28;20165;-83
2022/07/20 01:28:26;;;;;;;14.95;4.03;;;22.40;85.80;;;;;;5032397;28;20596;-83
2022/07/20 01:30:52;;;;;;;8.90;3.67;;;22.20;86.70;;;;;;5033459;28;20227;-83
2022/07/20 01:33:18;;;;;;;7.75;4.25;;;22.40;85.10;;;;;;5032662;28;20189;-83
2022/07/20 01:35:44;;;;;;;11.45;3.50;;;22.50;83.20;;;;;;5032994;28;20174;-83
2022/07/20 01:38:10;;;;;;;8.07;4.03;;;22.30;81.60;;;;;;5033621;28;20723;-80
2022/07/20 01:40:35;;;;;;;9.02;3.45;;;22.10;81.30;;;;;;5035681;28;20170;-80
2022/07/20 01:43:01;;;;;;;8.82;3.80;;;22.20;81.50;;;;;;5033496;28;20627;-80
2022/07/20 01:45:27;;;;;;;7.82;4.00;;;22.20;81.90;;;;;;5033361;28;20182;-80
2022/07/20 01:47:52;;;;;;;12.25;4.13;;;22.00;81.60;;;;;;5036898;28;20170;-81
2022/07/20 01:50:19;;;;;;;10.70;3.80;;;22.20;82.30;;;;;;5039172;28;20177;-81
2022/07/20 01:52:45;;;;;;;6.40;3.67;;;22.10;82.60;;;;;;5036220;28;20174;-80
2022/07/20 01:55:10;;;;;;;9.30;4.25;;;22.10;82.70;;;;;;5035979;28;20198;-82
2022/07/20 01:57:37;;;;;;;11.05;3.95;;;22.20;83.30;;;;;;5035775;28;20255;-80
2022/07/20 02:00:06;;;;;;;11.50;3.95;;;21.90;86.60;;;;;;5035384;28;20170;-81
2022/07/20 02:02:32;;;;;;;14.52;4.60;;;21.80;88.80;;;;;;5034700;28;20178;-81
2022/07/20 02:04:57;;;;;;;19.00;4.45;;;21.80;89.20;;;;;;5044004;28;20654;-80
2022/07/20 02:07:23;;;;;;;9.20;4.35;;;21.90;89.70;;;;;;5046456;28;20189;-82
2022/07/20 02:09:49;;;;;;;9.60;4.20;;;21.80;89.10;;;;;;5044311;28;20193;-80
2022/07/20 02:12:14;;;;;;;11.00;4.35;;;21.90;88.10;;;;;;5043628;28;20188;-82
2022/07/20 02:14:40;;;;;;;9.32;3.92;;;21.90;85.30;;;;;;5043014;28;20240;-81
2022/07/20 02:17:06;;;;;;;9.00;4.45;;;21.80;85.00;;;;;;5043870;28;20616;-81
2022/07/20 02:19:31;;;;;;;6.78;3.97;;;21.70;87.90;;;;;;5043137;28;20170;-81
2022/07/20 02:21:57;;;;;;;7.45;4.25;;;21.80;87.80;;;;;;5043996;28;20174;-81
2022/07/20 02:24:23;;;;;;;9.77;4.15;;;21.70;87.50;;;;;;5045132;28;20190;-80
2022/07/20 02:26:48;;;;;;;9.82;4.40;;;21.70;86.50;;;;;;5045468;28;20170;-80
2022/07/20 02:29:14;;;;;;;11.75;4.20;;;21.80;85.40;;;;;;5045396;28;20224;-83
2022/07/20 02:31:40;;;;;;;8.55;4.22;;;21.80;85.60;;;;;;5046894;28;20158;-81
2022/07/20 02:34:05;;;;;;;17.23;4.40;;;21.80;85.60;;;;;;5044740;28;20193;-80
2022/07/20 02:36:31;;;;;;;7.75;4.05;;;21.80;84.90;;;;;;5044956;28;20777;-82
2022/07/20 02:38:56;;;;;;;7.30;4.22;;;21.70;85.40;;;;;;5043834;28;20273;-80
2022/07/20 02:41:22;;;;;;;8.07;3.95;;;21.60;85.80;;;;;;5044951;28;20182;-81
2022/07/20 02:43:48;;;;;;;6.53;4.28;;;21.40;87.10;;;;;;5042439;28;20204;-83
2022/07/20 02:46:14;;;;;;;9.25;4.75;;;21.30;87.20;;;;;;5043831;28;20217;-82
2022/07/20 02:48:40;;;;;;;8.55;4.55;;;21.10;88.20;;;;;;5043405;28;20188;-81
2022/07/20 02:51:06;;;;;;;11.05;4.55;;;21.20;87.90;;;;;;5046390;28;20218;-80
2022/07/20 02:53:31;;;;;;;9.45;4.18;;;21.20;87.40;;;;;;5044348;28;20262;-81
2022/07/20 02:55:57;;;;;;;12.13;4.57;;;21.30;87.20;;;;;;5045220;28;20734;-80
2022/07/20 02:58:23;;;;;;;7.30;4.15;;;21.50;88.70;;;;;;5044055;28;20189;-80
2022/07/20 03:00:49;;;;;;;10.57;4.50;;;21.20;89.70;;;;;;5046148;28;20208;-83
2022/07/20 03:03:14;;;;;;;6.13;3.88;;;21.40;90.10;;;;;;5044384;28;20623;-83
2022/07/20 03:05:40;;;;;;;6.82;4.18;;;21.30;90.70;;;;;;5043630;28;20213;-83
2022/07/20 03:08:07;;;;;;;5.10;3.97;;;21.30;90.30;;;;;;5044740;28;20174;-83
2022/07/20 03:10:33;;;;;;;12.25;4.55;;;21.10;90.80;;;;;;5043186;28;20642;-83
2022/07/20 03:12:59;;;;;;;10.45;4.45;;;20.90;90.20;;;;;;5043489;28;20227;-82
2022/07/20 03:15:25;;;;;;;8.57;4.10;;;20.60;90.60;;;;;;5043883;28;20158;-82
2022/07/20 03:17:52;;;;;;;14.75;4.82;;;20.60;91.20;;;;;;5044169;28;20206;-81
2022/07/20 03:20:31;;;;;;;15.93;4.35;;;20.90;90.90;;;;;;5042981;28;20178;-81
2022/07/20 03:22:57;;;;;;;7.70;4.18;;;21.10;90.60;;;;;;5044335;28;20166;-82
2022/07/20 03:25:23;;;;;;;12.65;4.38;;;21.00;90.90;;;;;;5044417;28;20173;-82
2022/07/20 03:27:55;;;;;;;9.55;4.35;;;21.00;90.20;;;;;;5044187;28;20182;-82
2022/07/20 03:30:22;;;;;;;11.02;4.85;;;21.10;89.20;;;;;;5044726;28;20174;-80
2022/07/20 03:32:48;;;;;;;9.88;4.32;;;21.10;88.30;;;;;;5044624;28;20182;-81
2022/07/20 03:35:14;;;;;;;8.75;4.07;;;21.00;87.70;;;;;;5044908;28;20257;-80
2022/07/20 03:37:40;;;;;;;6.13;4.45;;;21.20;87.60;;;;;;5044995;28;20193;-82
2022/07/20 03:40:06;;;;;;;10.27;4.85;;;21.00;87.50;;;;;;5045643;28;20182;-80
2022/07/20 03:42:32;;;;;;;22.73;4.93;;;21.00;88.70;;;;;;5045629;28;20174;-80
2022/07/20 03:44:59;;;;;;;9.15;4.78;;;21.10;87.40;;;;;;5045237;28;20224;-80
2022/07/20 03:47:24;;;;;;;22.58;4.57;;;20.70;88.40;;;;;;5045750;28;20631;-80
2022/07/20 03:49:50;;;;;;;11.20;4.50;;;21.00;87.80;;;;;;5045151;28;20246;-81
2022/07/20 03:52:17;;;;;;;12.98;4.57;;;20.90;87.70;;;;;;5045967;28;20178;-80
2022/07/20 03:54:42;;;;;;;16.02;4.97;;;20.80;88.10;;;;;;5045612;28;20221;-83
2022/07/20 03:57:08;;;;;;;15.45;4.53;;;20.80;87.60;;;;;;5044667;28;20208;-82
2022/07/20 03:59:34;;;;;;;13.52;5.22;;;21.00;87.10;;;;;;5044975;28;20166;-81
2022/07/20 04:02:00;;;;;;;10.50;4.60;;;21.10;87.00;;;;;;5045770;28;20178;-83
2022/07/20 04:04:27;;;;;;;12.18;4.60;;;20.80;87.10;;;;;;5045992;28;20190;-82
2022/07/20 04:06:54;;;;;;;14.77;4.65;;;20.80;87.80;;;;;;5046107;28;20223;-82
2022/07/20 04:09:43;;;;;;;9.65;4.35;;;20.90;87.70;;;;;;5044693;28;20174;-81
2022/07/20 04:12:05;;;;;;;8.05;4.05;;;20.90;87.00;;;;;;5043877;28;20197;-82
2022/07/20 04:14:31;;;;;;;12.32;4.82;;;21.00;87.40;;;;;;5039021;28;20190;-80
2022/07/20 04:16:57;;;;;;;12.00;4.55;;;21.10;86.90;;;;;;5038466;28;20174;-81
2022/07/20 04:19:22;;;;;;;14.25;4.68;;;21.10;87.30;;;;;;5039034;28;20174;-81
2022/07/20 04:21:48;;;;;;;11.50;4.38;;;21.00;86.80;;;;;;5038882;28;20178;-80
2022/07/20 04:24:13;;;;;;;13.00;4.45;;;20.80;87.30;;;;;;5038236;28;20190;-80
2022/07/20 04:26:39;;;;;;;19.95;4.88;;;21.00;86.40;;;;;;5038960;28;20185;-80
2022/07/20 04:29:05;;;;;;;14.15;4.90;;;21.30;86.80;;;;;;5038421;28;20182;-80
2022/07/20 04:31:30;;;;;;;10.20;4.35;;;21.30;84.70;;;;;;5039372;28;20194;-81
2022/07/20 04:33:56;;;;;;;14.10;4.68;;;21.20;84.00;;;;;;5039399;28;20198;-80
2022/07/20 04:36:23;;;;;;;15.77;4.70;;;21.40;84.70;;;;;;5039382;28;20178;-80
2022/07/20 04:38:49;;;;;;;8.02;4.35;;;21.40;85.70;;;;;;5039805;28;20197;-80
2022/07/20 04:41:16;;;;;;;10.40;4.90;;;21.40;84.70;;;;;;5040288;28;20752;-82
2022/07/20 04:43:42;;;;;;;13.13;4.25;;;21.70;83.50;;;;;;5039172;28;20285;-81
2022/07/20 04:46:07;;;;;;;8.80;4.30;;;21.80;83.20;;;;;;5039213;28;20198;-80
2022/07/20 04:48:33;;;;;;;7.97;4.20;;;21.90;83.60;;;;;;5038648;28;20178;-83
2022/07/20 04:50:58;;;;;;;11.73;4.10;;;22.10;83.20;;;;;;5037810;28;20252;-83
2022/07/20 04:53:24;;;;;;;33.15;5.55;;;22.40;82.70;;;;;;5035083;28;20228;-84
2022/07/20 04:55:50;;;;;;;29.02;5.07;;;22.90;81.40;;;;;;5035732;28;20170;-83
2022/07/20 04:58:15;;;;;;;17.52;4.72;;;23.00;81.40;;;;;;5034234;28;20213;-83
2022/07/20 05:00:41;;;;;;;20.92;4.53;;;23.50;80.80;;;;;;5035422;28;20634;-83
2022/07/20 05:03:07;;;;;;;13.85;4.13;;;23.90;79.60;;;;;;5035837;28;20638;-83
2022/07/20 05:05:32;;;;;;;9.40;4.40;;;23.90;79.20;;;;;;5036823;28;20181;-83
2022/07/20 05:07:58;;;;;;;10.90;4.05;;;23.70;79.00;;;;;;5037073;28;20198;-83
2022/07/20 05:10:24;;;;;;;10.10;4.35;;;23.80;79.70;;;;;;5036605;28;20174;-84
2022/07/20 05:12:49;;;;;;;16.73;4.63;;;23.80;79.30;;;;;;5038966;28;20174;-84
2022/07/20 05:15:15;;;;;;;16.33;4.38;;;23.60;80.30;;;;;;5037031;28;20681;-83
2022/07/20 05:17:41;;;;;;;17.63;4.60;;;23.50;80.30;;;;;;5036294;28;20198;-83
2022/07/20 05:20:07;;;;;;;8.13;3.97;;;23.80;79.50;;;;;;5034458;28;20220;-83
2022/07/20 05:22:32;;;;;;;5.60;3.72;;;23.80;79.60;;;;;;5037610;28;20208;-83
2022/07/20 05:24:58;;;;;;;18.40;3.83;;;23.90;79.40;;;;;;5037252;28;20197;-83
2022/07/20 05:27:24;;;;;;;12.80;3.90;;;24.00;80.60;;;;;;5036798;28;20184;-83
2022/07/20 05:29:49;;;;;;;10.20;4.03;;;24.30;78.20;;;;;;5035761;28;20877;-83
2022/07/20 05:32:15;;;;;;;8.27;3.60;;;24.60;78.80;;;;;;5037274;28;20182;-83
2022/07/20 05:34:41;;;;;;;14.15;4.28;;;24.70;77.30;;;;;;5036374;28;20201;-83
2022/07/20 05:37:06;;;;;;;8.68;4.00;;;24.80;77.10;;;;;;5037599;28;20319;-83
2022/07/20 05:39:32;;;;;;;11.45;4.13;;;24.60;76.60;;;;;;5036578;28;20173;-83
2022/07/20 05:41:57;;;;;;;10.25;4.03;;;24.70;77.10;;;;;;5037165;28;20692;-83
2022/07/20 05:44:23;;;;;;;8.93;3.90;;;24.90;78.30;;;;;;5038953;28;20282;-84
2022/07/20 05:46:49;;;;;;;12.35;4.15;;;25.10;75.80;;;;;;5040267;28;20174;-84
2022/07/20 05:49:14;;;;;;;12.55;4.40;;;24.80;75.90;;;;;;5038827;28;20170;-83
2022/07/20 05:51:40;;;;;;;15.15;4.57;;;25.30;76.10;;;;;;5039312;28;20167;-84
2022/07/20 05:54:06;;;;;;;18.80;4.40;;;25.50;75.90;;;;;;5038794;28;20567;-84
2022/07/20 05:56:32;;;;;;;12.95;3.70;;;25.50;74.60;;;;;;5038223;28;20266;-84
2022/07/20 05:58:57;;;;;;;13.02;4.00;;;26.10;74.70;;;;;;5038732;28;20193;-84
2022/07/20 06:01:23;;;;;;;16.20;4.03;;;26.40;73.60;;;;;;5039707;28;20233;-84
2022/07/20 06:03:49;;;;;;;14.43;3.53;;;26.50;74.10;;;;;;5039952;28;20194;-84
2022/07/20 06:06:15;;;;;;;9.63;3.50;;;26.90;73.80;;;;;;5039347;28;20174;-84
2022/07/20 06:08:41;;;;;;;13.93;3.55;;;27.20;72.40;;;;;;5041324;28;20174;-85
2022/07/20 06:11:08;;;;;;;10.82;3.40;;;27.10;72.20;;;;;;5043188;28;20194;-84
2022/07/20 06:13:34;;;;;;;18.95;3.65;;;27.10;71.50;;;;;;5043671;28;20198;-84
2022/07/20 06:16:00;;;;;;;26.75;4.75;;;27.80;72.80;;;;;;5043849;28;20193;-84
2022/07/20 06:18:25;;;;;;;17.27;4.10;;;28.20;72.00;;;;;;5043130;28;20225;-84
2022/07/20 06:20:51;;;;;;;11.95;3.50;;;28.30;71.20;;;;;;5043262;28;20251;-84
2022/07/20 06:23:16;;;;;;;12.68;3.63;;;27.90;70.30;;;;;;5043539;28;20182;-84
2022/07/20 06:25:42;;;;;;;6.13;3.50;;;28.20;70.50;;;;;;5041446;28;20205;-84
2022/07/20 06:28:08;;;;;;;11.48;3.60;;;27.90;71.80;;;;;;5042784;28;20593;-85
2022/07/20 06:30:34;;;;;;;9.13;3.38;;;27.90;70.20;;;;;;5043597;28;20170;-84
2022/07/20 06:32:59;;;;;;;8.10;3.60;;;28.80;70.70;;;;;;5044497;28;20238;-85
2022/07/20 06:35:25;;;;;;;5.50;3.60;;;29.10;71.40;;;;;;5042847;28;20182;-84
2022/07/20 06:37:51;;;;;;;11.10;3.28;;;29.10;70.70;;;;;;5036873;28;20233;-85
2022/07/20 06:40:17;;;;;;;5.22;3.47;;;29.20;69.30;;;;;;5041167;28;20537;-83
2022/07/20 06:42:42;;;;;;;11.68;3.92;;;29.90;68.20;;;;;;5044449;28;20196;-83
2022/07/20 06:45:08;;;;;;;8.40;3.25;;;30.20;68.20;;;;;;5046233;28;20666;-84
2022/07/20 06:47:34;;;;;;;12.27;3.40;;;30.50;68.20;;;;;;5045427;28;20632;-84
2022/07/20 06:50:00;;;;;;;7.13;3.15;;;30.30;67.80;;;;;;5040192;28;20170;-82
2022/07/20 06:52:25;;;;;;;11.07;3.17;;;30.30;67.50;;;;;;5034551;28;20236;-83
2022/07/20 06:54:51;;;;;;;10.40;3.30;;;29.90;67.60;;;;;;5028037;28;20202;-81
2022/07/20 06:57:18;;;;;;;13.80;3.50;;;30.00;68.20;;;;;;5020211;28;20693;-81
2022/07/20 06:59:44;;;;;;;7.82;3.30;;;31.10;68.00;;;;;;5020190;28;20171;-80
2022/07/20 07:02:09;;;;;;;6.85;3.67;;;31.30;66.50;;;;;;5020710;28;20553;-81
2022/07/20 07:04:35;;;;;;;6.10;3.08;;;31.40;66.90;;;;;;5020222;28;20253;-80
2022/07/20 07:07:02;;;;;;;17.20;3.72;;;31.90;65.90;;;;;;5021448;28;20213;-80
2022/07/20 07:09:28;;;;;;;10.10;3.22;;;31.80;65.60;;;;;;5020459;28;20178;-80
2022/07/20 07:11:54;;;;;;;8.75;3.33;;;32.10;65.20;;;;;;5024234;28;20186;-80
2022/07/20 07:14:20;;;;;;;22.38;3.47;;;32.40;64.70;;;;;;5026411;28;20193;-80
2022/07/20 07:16:45;;;;;;;9.65;3.75;;;32.10;65.50;;;;;;5023193;28;20182;-82
2022/07/20 07:19:11;;;;;;;11.82;3.70;;;32.10;65.00;;;;;;5022485;28;20198;-79
2022/07/20 07:21:37;;;;;;;9.35;4.20;;;32.50;65.80;;;;;;5026678;28;20185;-81
2022/07/20 07:24:03;;;;;;;8.80;3.60;;;33.10;64.50;;;;;;5024183;28;20199;-81
2022/07/20 07:26:28;;;;;;;9.10;3.95;;;32.90;61.90;;;;;;5020950;28;20718;-83
2022/07/20 07:28:54;;;;;;;10.45;3.97;;;33.30;61.40;;;;;;5030304;28;20517;-79
2022/07/20 07:31:20;;;;;;;6.88;3.70;;;33.30;60.80;;;;;;5017957;28;20171;-79
2022/07/20 07:33:46;;;;;;;8.65;3.80;;;33.70;60.40;;;;;;5017808;28;20203;-79
2022/07/20 07:36:12;;;;;;;6.18;3.70;;;33.90;60.60;;;;;;5016101;28;20175;-82
2022/07/20 07:38:38;;;;;;;8.38;4.20;;;33.30;61.20;;;;;;5019818;28;20237;-80
2022/07/20 07:41:04;;;;;;;7.30;3.80;;;33.30;61.30;;;;;;5018870;28;20205;-80
2022/07/20 07:43:29;;;;;;;8.55;4.25;;;33.20;61.90;;;;;;5019578;28;20225;-82
2022/07/20 07:45:55;;;;;;;7.97;4.15;;;33.50;61.80;;;;;;5018315;28;20174;-83
2022/07/20 07:48:21;;;;;;;8.48;4.50;;;33.50;61.40;;;;;;5018916;28;20186;-85
2022/07/20 07:50:47;;;;;;;7.55;4.60;;;34.10;60.60;;;;;;5018921;28;20179;-83
2022/07/20 07:53:13;;;;;;;6.95;3.53;;;33.40;61.10;;;;;;5017603;28;20252;-83
2022/07/20 07:55:40;;;;;;;11.55;4.30;;;33.40;61.40;;;;;;5018186;28;20175;-83
2022/07/20 07:58:07;;;;;;;6.82;3.85;;;33.30;60.80;;;;;;5019779;28;20197;-83
2022/07/20 08:00:35;;;;;;;7.68;4.03;;;34.00;61.80;;;;;;5015597;28;20197;-83
2022/07/20 08:03:01;;;;;;;9.27;3.95;;;34.40;61.10;;;;;;5014462;28;20198;-82
2022/07/20 08:05:27;;;;;;;7.82;4.00;;;34.10;60.70;;;;;;5016917;28;20198;-82
2022/07/20 08:07:56;;;;;;;10.50;4.13;;;33.90;62.00;;;;;;5016593;28;20179;-82
2022/07/20 08:10:22;;;;;;;7.68;4.55;;;34.30;61.60;;;;;;5016166;28;20178;-83
2022/07/20 08:12:48;;;;;;;10.00;5.22;;;34.20;61.50;;;;;;5018039;28;20182;-83
2022/07/20 08:15:14;;;;;;;13.32;4.20;;;33.80;60.30;;;;;;5024867;28;20314;-83
2022/07/20 08:17:45;;;;;;;14.55;5.60;;;33.70;60.60;;;;;;5022594;28;20650;-83
2022/07/20 08:20:11;;;;;;;14.95;6.25;;;33.70;61.00;;;;;;5017011;28;20178;-83
2022/07/20 08:22:37;;;;;;;13.65;5.45;;;33.60;61.00;;;;;;5017099;28;20174;-83
2022/07/20 08:25:03;;;;;;;13.20;5.85;;;33.60;61.90;;;;;;5017302;28;20197;-84
2022/07/20 08:27:29;;;;;;;13.13;6.63;;;33.90;61.20;;;;;;5019000;28;20175;-83
2022/07/20 08:29:58;;;;;;;8.93;6.15;;;34.20;61.80;;;;;;5016517;28;20224;-84
2022/07/20 08:32:24;;;;;;;13.98;6.53;;;34.10;61.70;;;;;;5017666;28;20606;-83
2022/07/20 08:34:51;;;;;;;10.23;6.10;;;34.10;61.60;;;;;;5018105;28;20686;-83
2022/07/20 08:37:16;;;;;;;13.07;7.03;;;34.10;62.00;;;;;;5016515;28;20178;-83
2022/07/20 08:39:42;;;;;;;11.43;6.65;;;34.50;62.30;;;;;;5017005;28;20182;-83
2022/07/20 08:42:11;;;;;;;23.70;7.95;;;34.20;62.60;;;;;;5016616;28;20631;-83
2022/07/20 08:44:40;;;;;;;18.38;8.15;;;34.50;63.60;;;;;;5015743;28;20198;-84
2022/07/20 08:47:05;;;;;;;13.85;8.80;;;34.30;63.20;;;;;;5016851;28;20257;-82
2022/07/20 08:49:32;;;;;;;18.42;8.68;;;34.10;64.60;;;;;;5015667;28;20201;-84
2022/07/20 08:51:58;;;;;;;15.20;9.27;;;33.70;65.60;;;;;;5016730;28;20179;-83
2022/07/20 08:54:26;;;;;;;27.02;10.13;;;34.10;65.80;;;;;;5015745;28;20190;-83
2022/07/20 08:56:51;;;;;;;17.70;9.68;;;34.40;65.50;;;;;;5017349;28;20158;-84
2022/07/20 08:59:17;;;;;;;23.50;10.80;;;34.50;66.30;;;;;;5015285;28;20246;-84
2022/07/20 09:02:04;;;;;;;22.70;11.13;;;34.40;66.60;;;;;;5015763;28;20519;-84
2022/07/20 09:04:30;;;;;;;28.90;11.63;;;34.20;67.00;;;;;;5014838;28;20197;-83
2022/07/20 09:06:57;;;;;;;19.67;11.35;;;34.40;67.70;;;;;;5015266;28;20270;-84
2022/07/20 09:09:23;;;;;;;22.58;11.90;;;34.70;67.80;;;;;;5014776;28;20181;-84
2022/07/20 09:11:49;;;;;;;24.90;12.57;;;34.10;68.00;;;;;;5014208;28;20268;-83
2022/07/20 09:14:40;;;;;;;22.67;14.15;;;34.20;68.60;;;;;;5014618;28;20256;-83
2022/07/20 09:17:21;;;;;;;24.00;14.13;;;34.20;70.10;;;;;;5014236;28;20620;-84
2022/07/20 09:19:58;;;;;;;26.52;14.13;;;34.40;70.60;;;;;;5013840;28;20643;-84
2022/07/20 09:22:33;;;;;;;26.98;15.23;;;34.40;70.20;;;;;;5013918;28;20189;-84
2022/07/20 09:25:14;;;;;;;21.65;14.80;;;34.30;70.30;;;;;;5015085;28;20202;-84
2022/07/20 09:27:40;;;;;;;25.67;15.25;;;34.30;70.80;;;;;;5014788;28;20265;-83
2022/07/20 09:30:09;;;;;;;31.40;15.27;;;34.40;70.70;;;;;;5014671;28;20252;-82
2022/07/20 09:33:06;;;;;;;25.40;15.95;;;34.50;70.70;;;;;;5013684;28;20244;-83
2022/07/20 09:35:34;;;;;;;24.25;15.65;;;34.10;71.10;;;;;;5015067;28;20178;-82
2022/07/20 09:38:03;;;;;;;21.38;15.90;;;34.40;71.10;;;;;;5020024;28;20566;-82
2022/07/20 09:40:39;;;;;;;32.17;16.20;;;34.20;71.00;;;;;;5014089;28;20666;-83
2022/07/20 09:43:05;;;;;;;26.10;15.93;;;34.20;70.80;;;;;;5013907;28;20569;-83
2022/07/20 09:45:31;;;;;;;27.70;16.15;;;34.30;71.10;;;;;;5013753;28;20175;-82
2022/07/20 09:48:04;;;;;;;25.75;16.00;;;34.40;70.80;;;;;;5015569;28;20182;-82
2022/07/20 09:50:43;;;;;;;24.92;15.48;;;34.40;69.70;;;;;;5015437;28;20181;-81
2022/07/20 09:53:10;;;;;;;27.42;15.93;;;34.20;70.20;;;;;;5014539;28;20853;-82
2022/07/20 09:55:38;;;;;;;20.05;15.93;;;34.30;70.30;;;;;;5014486;28;20285;-82
2022/07/20 09:58:05;;;;;;;19.38;15.05;;;34.60;70.20;;;;;;5014923;28;20690;-82
2022/07/20 10:00:33;;;;;;;28.13;16.15;;;35.40;69.60;;;;;;5018442;28;20177;-81
2022/07/20 10:03:00;;;;;;;21.48;15.90;;;35.10;69.60;;;;;;5016413;28;20186;-82
2022/07/20 10:05:30;;;;;;;26.75;16.35;;;35.10;68.40;;;;;;5014532;28;20262;-81
2022/07/20 10:07:59;;;;;;;26.85;17.08;;;34.60;69.60;;;;;;5016384;28;20206;-82
2022/07/20 10:10:25;;;;;;;25.40;16.13;;;35.10;69.40;;;;;;5017623;28;20238;-81
2022/07/20 10:12:51;;;;;;;26.17;16.63;;;35.50;68.80;;;;;;5016496;28;20191;-82
2022/07/20 10:15:21;;;;;;;28.60;17.52;;;35.50;67.70;;;;;;5016288;28;20202;-81
2022/07/20 10:17:47;;;;;;;31.98;16.90;;;35.80;67.40;;;;;;5016836;28;20198;-82
2022/07/20 10:20:31;;;;;;;24.63;17.13;;;35.30;67.50;;;;;;5015588;28;20175;-81
2022/07/20 10:23:15;;;;;;;24.65;16.25;;;35.00;68.00;;;;;;5015573;28;20170;-83
2022/07/20 10:25:45;;;;;;;28.10;16.33;;;35.20;67.60;;;;;;5015519;28;20171;-82
2022/07/20 10:28:34;;;;;;;35.80;15.80;;;35.50;67.90;;;;;;5017778;28;20201;-81
2022/07/20 10:31:07;;;;;;;25.52;15.82;;;36.10;66.40;;;;;;5013971;28;20163;-83
2022/07/20 10:33:36;;;;;;;23.45;17.13;;;35.90;66.60;;;;;;5012861;28;20249;-82
2022/07/20 10:38:55;;;;;;;20.83;15.77;;;36.40;66.40;;;;;;5015835;28;20221;-82
2022/07/20 10:41:32;;;;;;;23.45;17.50;;;35.90;66.30;;;;;;5014379;28;20179;-83
2022/07/20 10:44:20;;;;;;;26.40;16.40;;;36.50;65.70;;;;;;5018295;28;20194;-81
2022/07/20 10:46:47;;;;;;;24.83;16.98;;;36.90;65.40;;;;;;5040600;28;20174;-82
2022/07/20 10:49:14;;;;;;;27.17;16.80;;;36.70;64.80;;;;;;5024083;28;20166;-83
2022/07/20 10:51:40;;;;;;;20.70;16.02;;;36.70;64.80;;;;;;5023777;28;20170;-83
2022/07/20 10:54:31;;;;;;;27.90;16.92;;;36.20;66.60;;;;;;5025952;28;20190;-80
2022/07/20 10:57:01;;;;;;;27.00;16.38;;;36.30;66.70;;;;;;5025900;28;20182;-81
2022/07/20 10:59:31;;;;;;;30.02;17.25;;;37.20;65.70;;;;;;5025694;28;20742;-82
2022/07/20 11:01:57;;;;;;;28.65;17.30;;;36.80;64.80;;;;;;5025705;28;20174;-81
2022/07/20 11:04:22;;;;;;;24.13;16.27;;;36.40;66.10;;;;;;5025819;28;20678;-83
2022/07/20 11:06:48;;;;;;;27.77;16.35;;;36.50;66.10;;;;;;5028980;28;20553;-81
2022/07/20 11:09:15;;;;;;;28.17;16.25;;;35.80;65.70;;;;;;5024500;28;20170;-82
2022/07/20 11:11:42;;;;;;;27.85;16.33;;;36.00;66.10;;;;;;5025040;28;20190;-83
2022/07/20 11:14:10;;;;;;;25.25;16.98;;;36.60;66.20;;;;;;5027179;28;20194;-81
2022/07/20 11:16:37;;;;;;;21.30;16.50;;;36.20;66.30;;;;;;5026265;28;20158;-81
2022/07/20 11:19:04;;;;;;;27.52;16.63;;;36.40;66.20;;;;;;5024272;28;20201;-82
2022/07/20 11:21:33;;;;;;;20.27;15.75;;;36.00;66.60;;;;;;5027450;28;20177;-83
2022/07/20 11:23:58;;;;;;;24.27;16.50;;;36.50;66.50;;;;;;5027617;28;20193;-82
2022/07/20 11:26:24;;;;;;;21.80;16.65;;;36.40;65.20;;;;;;5028564;28;20166;-82
2022/07/20 11:28:55;;;;;;;19.95;15.82;;;35.90;65.60;;;;;;5028193;28;20178;-80
2022/07/20 11:31:24;;;;;;;22.90;16.20;;;36.20;66.30;;;;;;5028777;28;20197;-80
2022/07/20 11:33:52;;;;;;;25.60;16.80;;;36.80;65.30;;;;;;5032733;28;20220;-81
2022/07/20 11:36:23;;;;;;;22.20;17.02;;;36.90;64.80;;;;;;5028548;28;20166;-83
2022/07/20 11:38:49;;;;;;;23.23;15.98;;;37.10;64.00;;;;;;5027106;28;20207;-84
2022/07/20 11:41:17;;;;;;;21.40;15.23;;;37.10;64.20;;;;;;5035075;28;20169;-82
2022/07/20 11:43:44;;;;;;;20.95;15.43;;;37.70;63.20;;;;;;5034201;28;20681;-82
2022/07/20 11:46:14;;;;;;;21.83;15.45;;;36.80;64.70;;;;;;5034958;28;20177;-83
2022/07/20 11:48:45;;;;;;;26.13;16.00;;;36.70;66.00;;;;;;5034260;28;20185;-83
2022/07/20 11:51:11;;;;;;;23.75;15.73;;;36.90;65.20;;;;;;5034308;28;20264;-82
2022/07/20 11:53:39;;;;;;;23.65;15.23;;;37.00;65.00;;;;;;5028422;28;20204;-83
2022/07/20 11:56:17;;;;;;;21.80;15.07;;;37.10;64.40;;;;;;5031735;28;20174;-81
2022/07/20 11:58:45;;;;;;;24.15;16.13;;;36.80;65.00;;;;;;5033256;28;20198;-81
2022/07/20 12:01:14;;;;;;;24.35;15.23;;;36.90;64.40;;;;;;5024676;28;20175;-81
2022/07/20 12:03:48;;;;;;;22.50;15.57;;;36.60;64.80;;;;;;5021809;28;20216;-81
2022/07/20 12:06:15;;;;;;;24.35;14.77;;;36.60;65.10;;;;;;5023309;28;20181;-81
2022/07/20 12:08:42;;;;;;;26.25;16.30;;;36.90;64.60;;;;;;5020616;28;20175;-80
2022/07/20 12:11:08;;;;;;;20.95;15.73;;;36.20;64.70;;;;;;5018712;28;20677;-81
2022/07/20 12:13:48;;;;;;;21.77;15.32;;;36.60;65.40;;;;;;5018372;28;20284;-82
2022/07/20 12:16:16;;;;;;;27.13;16.42;;;36.80;65.40;;;;;;5024823;28;20221;-80
2022/07/20 12:18:55;;;;;;;20.73;15.38;;;36.70;64.60;;;;;;5018976;28;20202;-81
2022/07/20 12:21:25;;;;;;;27.88;16.98;;;36.80;64.70;;;;;;5016395;28;20171;-80
2022/07/20 12:23:53;;;;;;;20.95;16.63;;;36.60;65.60;;;;;;5016685;28;20580;-79
2022/07/20 12:26:32;;;;;;;22.40;15.30;;;36.00;65.70;;;;;;5017398;28;20584;-81
2022/07/20 12:29:17;;;;;;;28.90;16.77;;;35.70;66.50;;;;;;5018986;28;20350;-80
2022/07/20 12:31:43;;;;;;;24.08;16.20;;;35.60;66.80;;;;;;5015624;28;20185;-79
2022/07/20 12:34:13;;;;;;;25.15;16.48;;;35.20;67.10;;;;;;5019962;28;20281;-80
2022/07/20 12:36:46;;;;;;;26.40;16.48;;;35.40;67.40;;;;;;5024098;28;20182;-80
2022/07/20 12:39:14;;;;;;;25.27;17.63;;;35.40;67.30;;;;;;5026040;28;20277;-81
2022/07/20 12:41:42;;;;;;;33.95;17.30;;;35.00;67.50;;;;;;5026622;28;20174;-80
2022/07/20 12:44:28;;;;;;;24.75;17.20;;;35.20;67.50;;;;;;5023393;28;20194;-81